CXO weather

Conroe-North Houston Regional Airport
Houston, Texas, United States

Public forecast

Using degrees Fahrenheit for public forecast. Weather courtesy of forecast.io.

METAR (pilot weather report)

Retrieved 2019/09/21 01:53 UTC (20 minutes ago):

KCXO 210153Z AUTO 12007KT 10SM CLR 24/23 A3004 RMK AO2 SLP167 T02390228

TAF (pilot weather forecast)

Forecast is more than 12 hours old.

Retrieved 2019/09/20 00:24 UTC (1 day ago):

TAF KCXO 202322Z 2100/2124 14003KT P6SM VCSH SCT035 BKN070 TEMPO 2100/2101 6SM SHRA BKN035 FM210300 13011KT P6SM SCT025 FM210900 14006KT P6SM SCT015 BKN025 FM211600 13011KT P6SM SCT025 BKN035 PROB30 2117/2121 SHRA